createdAt,value
2018-05-26T00:09:45.339Z,19.10
2018-05-26T00:12:12.932Z,18.80
2018-05-26T00:14:40.454Z,18.90
2018-05-26T00:17:08.643Z,18.90
2018-05-26T00:19:36.127Z,18.80
2018-05-26T00:22:04.354Z,18.80
2018-05-26T00:24:31.865Z,18.80
2018-05-26T00:26:59.871Z,18.90
2018-05-26T00:29:27.353Z,18.90
2018-05-26T00:31:54.828Z,18.90
2018-05-26T00:34:22.332Z,18.80
2018-05-26T00:36:49.812Z,18.80
2018-05-26T00:39:17.303Z,18.80
2018-05-26T00:41:44.884Z,18.80
2018-05-26T00:44:12.378Z,18.80
2018-05-26T00:46:39.848Z,18.70
2018-05-26T00:49:07.386Z,18.70
2018-05-26T00:51:34.867Z,18.70
2018-05-26T00:54:02.345Z,18.80
2018-05-26T00:56:29.829Z,18.70
2018-05-26T00:58:57.295Z,18.80
2018-05-26T01:01:24.810Z,18.70
2018-05-26T01:03:52.367Z,18.70
2018-05-26T01:06:19.871Z,18.60
2018-05-26T01:08:47.344Z,18.60
2018-05-26T01:11:14.839Z,18.50
2018-05-26T01:13:42.367Z,18.50
2018-05-26T01:16:09.882Z,18.50
2018-05-26T01:18:37.360Z,18.40
2018-05-26T01:21:04.868Z,18.50
2018-05-26T01:23:32.426Z,18.50
2018-05-26T01:26:00.719Z,18.50
2018-05-26T01:28:29.002Z,18.30
2018-05-26T01:30:56.555Z,18.30
2018-05-26T01:33:24.630Z,18.20
2018-05-26T01:35:52.122Z,18.30
2018-05-26T01:38:19.589Z,18.30
2018-05-26T01:40:47.090Z,18.40
2018-05-26T01:43:14.616Z,18.40
2018-05-26T01:45:42.111Z,18.30
2018-05-26T01:48:09.675Z,18.30
2018-05-26T01:50:37.216Z,18.30
2018-05-26T01:53:05.466Z,18.10
2018-05-26T01:55:32.966Z,18.10
2018-05-26T01:58:00.464Z,18.00
2018-05-26T02:00:28.703Z,18.10
2018-05-26T02:02:56.911Z,18.10
2018-05-26T02:05:25.118Z,18.00
2018-05-26T02:07:52.678Z,17.90
2018-05-26T02:10:20.152Z,18.00
2018-05-26T02:12:47.760Z,18.00
2018-05-26T02:15:15.218Z,18.00
2018-05-26T02:17:42.723Z,18.10
2018-05-26T02:20:10.997Z,18.00
2018-05-26T02:22:39.205Z,18.00
2018-05-26T02:25:07.433Z,18.00
2018-05-26T02:27:34.924Z,18.00
2018-05-26T02:30:02.450Z,17.80
2018-05-26T02:32:30.752Z,17.70
2018-05-26T02:34:58.223Z,17.70
2018-05-26T02:37:25.677Z,17.80
2018-05-26T02:39:53.211Z,17.70
2018-05-26T02:42:20.958Z,17.70
2018-05-26T02:44:49.391Z,17.70
2018-05-26T02:47:16.918Z,17.70
2018-05-26T02:49:44.570Z,17.80
2018-05-26T02:52:12.049Z,17.80
2018-05-26T02:54:39.611Z,17.70
2018-05-26T02:57:07.200Z,17.70
2018-05-26T02:59:34.695Z,17.70
2018-05-26T03:02:02.192Z,17.60
2018-05-26T03:04:36.102Z,17.60
2018-05-26T03:07:10.140Z,17.60
2018-05-26T03:09:48.655Z,17.70
2018-05-26T03:12:22.741Z,17.60
2018-05-26T03:14:49.744Z,17.60
2018-05-26T03:17:34.654Z,17.50
2018-05-26T03:20:02.195Z,17.50
2018-05-26T03:22:30.498Z,17.50
2018-05-26T03:24:58.222Z,17.50
2018-05-26T03:27:25.731Z,17.50
2018-05-26T03:39:33.968Z,17.60
2018-05-26T03:42:02.220Z,17.60
2018-05-26T03:44:30.578Z,17.50
2018-05-26T03:46:58.703Z,17.50
2018-05-26T03:49:26.164Z,17.50
2018-05-26T03:51:54.510Z,17.50
2018-05-26T03:54:22.609Z,17.50
2018-05-26T03:57:02.007Z,17.50
2018-05-26T03:59:42.072Z,17.40
2018-05-26T04:02:10.502Z,17.40
2018-05-26T04:04:37.976Z,17.40
2018-05-26T04:07:06.082Z,17.40
2018-05-26T04:09:33.571Z,17.40
2018-05-26T04:12:01.234Z,17.50
2018-05-26T04:14:28.787Z,17.50
2018-05-26T04:16:57.085Z,17.60
2018-05-26T04:19:24.587Z,17.60
2018-05-26T04:21:52.895Z,17.70
2018-05-26T04:24:20.455Z,17.70
2018-05-26T04:26:48.104Z,17.60
2018-05-26T04:29:15.574Z,17.60
2018-05-26T04:31:43.095Z,17.80
2018-05-26T04:34:10.578Z,17.90
2018-05-26T04:36:38.295Z,17.90
2018-05-26T04:39:05.786Z,17.90
2018-05-26T04:41:33.333Z,18.00
2018-05-26T04:44:01.581Z,18.10
2018-05-26T04:46:29.063Z,18.10
2018-05-26T04:48:56.526Z,18.20
2018-05-26T04:51:24.001Z,18.20
2018-05-26T04:53:51.549Z,18.20
2018-05-26T04:56:19.037Z,18.10
2018-05-26T04:58:46.578Z,18.20
2018-05-26T05:01:15.508Z,18.20
2018-05-26T05:03:47.210Z,18.40
2018-05-26T05:06:14.695Z,18.40
2018-05-26T05:08:42.179Z,18.50
2018-05-26T05:11:09.738Z,18.50
2018-05-26T05:13:37.215Z,18.60
2018-05-26T05:16:04.712Z,18.70
2018-05-26T05:18:32.216Z,18.70
2018-05-26T05:20:59.742Z,18.80
2018-05-26T05:23:27.316Z,18.80
2018-05-26T05:25:55.246Z,18.80
2018-05-26T05:28:22.711Z,18.90
2018-05-26T05:30:54.162Z,19.00
2018-05-26T05:33:21.812Z,19.00
2018-05-26T05:35:49.291Z,19.00
2018-05-26T05:38:16.852Z,19.00
2018-05-26T05:40:44.848Z,19.10
2018-05-26T05:43:13.093Z,19.30
2018-05-26T05:45:40.683Z,19.30
2018-05-26T05:48:08.939Z,19.50
2018-05-26T05:50:36.447Z,19.40
2018-05-26T05:53:04.815Z,20.40
2018-05-26T05:55:32.460Z,20.30
2018-05-26T05:58:04.064Z,21.20
2018-05-26T06:00:31.572Z,21.80
2018-05-26T06:02:59.031Z,22.30
2018-05-26T06:05:26.559Z,22.90
2018-05-26T06:07:55.215Z,23.50
2018-05-26T06:10:23.548Z,24.20
2018-05-26T06:12:51.030Z,24.80
2018-05-26T06:15:19.441Z,25.20
2018-05-26T06:17:47.670Z,25.60
2018-05-26T06:20:15.127Z,25.60
2018-05-26T06:22:42.699Z,26.40
2018-05-26T06:25:10.155Z,26.80
2018-05-26T06:27:41.643Z,27.50
2018-05-26T06:39:49.150Z,27.90
2018-05-26T06:42:17.521Z,27.70
2018-05-26T06:44:44.967Z,27.70
2018-05-26T06:47:12.466Z,28.00
2018-05-26T06:49:40.064Z,28.20
2018-05-26T06:52:08.327Z,28.30
2018-05-26T06:54:35.949Z,28.30
2018-05-26T06:57:03.762Z,28.20
2018-05-26T07:02:24.823Z,28.80
2018-05-26T07:04:52.309Z,28.90
2018-05-26T07:07:22.341Z,27.50
2018-05-26T07:09:49.896Z,28.30
2018-05-26T07:12:17.485Z,28.50
2018-05-26T07:14:44.970Z,28.80
2018-05-26T07:17:12.427Z,29.00
2018-05-26T07:19:39.958Z,29.50
2018-05-26T07:22:07.655Z,29.70
2018-05-26T07:24:35.951Z,29.80
2018-05-26T07:27:04.231Z,29.60
2018-05-26T07:29:31.831Z,29.60
2018-05-26T07:31:59.318Z,29.60
2018-05-26T07:34:27.155Z,30.40
2018-05-26T07:36:54.714Z,31.30
2018-05-26T07:39:22.360Z,31.40
2018-05-26T07:41:49.866Z,31.30
2018-05-26T07:44:17.415Z,31.40
2018-05-26T07:46:51.444Z,30.60
2018-05-26T07:49:19.035Z,29.80
2018-05-26T07:51:46.729Z,29.10
2018-05-26T07:54:14.208Z,29.10
2018-05-26T07:56:41.921Z,29.20
2018-05-26T07:59:09.500Z,28.60
2018-05-26T08:01:37.025Z,29.10
2018-05-26T08:04:04.704Z,28.70
2018-05-26T08:06:33.014Z,30.40
2018-05-26T08:09:00.608Z,30.40
2018-05-26T08:11:28.238Z,30.60
2018-05-26T08:14:00.032Z,29.20
2018-05-26T08:16:27.638Z,29.40
2018-05-26T08:18:55.483Z,29.90
2018-05-26T08:21:23.819Z,30.10
2018-05-26T08:23:52.284Z,31.20
2018-05-26T08:26:19.864Z,31.60
2018-05-26T08:28:47.419Z,31.10
2018-05-26T08:31:15.076Z,31.00
2018-05-26T08:33:42.649Z,30.70
2018-05-26T08:36:10.214Z,30.50
2018-05-26T08:38:37.680Z,29.70
2018-05-26T08:41:05.954Z,30.90
2018-05-26T08:43:34.427Z,30.90
2018-05-26T08:46:01.904Z,31.70
2018-05-26T08:48:29.501Z,32.60
2018-05-26T08:50:57.020Z,32.70
2018-05-26T08:53:24.577Z,32.60
2018-05-26T08:55:52.046Z,31.80
2018-05-26T08:58:19.744Z,32.20
2018-05-26T09:00:47.229Z,32.00
2018-05-26T09:03:14.769Z,32.40
2018-05-26T09:05:43.035Z,32.00
2018-05-26T09:08:10.611Z,31.90
2018-05-26T09:10:38.070Z,32.00
2018-05-26T09:13:05.556Z,32.80
2018-05-26T09:15:33.027Z,32.90
2018-05-26T09:18:01.265Z,32.80
2018-05-26T09:20:28.848Z,32.70
2018-05-26T09:22:56.304Z,33.20
2018-05-26T09:25:23.793Z,33.50
2018-05-26T09:27:51.218Z,33.40
2018-05-26T09:30:18.704Z,33.70
2018-05-26T09:32:46.232Z,33.10
2018-05-26T09:35:13.696Z,33.10
2018-05-26T09:37:41.154Z,32.40
2018-05-26T09:40:08.695Z,32.20
2018-05-26T09:42:36.064Z,32.80
2018-05-26T09:45:03.589Z,33.10
2018-05-26T09:47:31.066Z,33.10
2018-05-26T09:49:58.515Z,33.70
2018-05-26T09:52:25.970Z,33.70
2018-05-26T09:54:53.441Z,33.40
2018-05-26T09:57:20.899Z,33.30
2018-05-26T09:59:48.359Z,33.50
2018-05-26T10:02:15.823Z,33.20
2018-05-26T10:04:43.380Z,32.60
2018-05-26T10:07:10.823Z,32.40
2018-05-26T10:09:38.288Z,32.20
2018-05-26T10:12:06.534Z,32.00
2018-05-26T10:14:33.995Z,31.90
2018-05-26T10:17:01.461Z,32.30
2018-05-26T10:19:28.942Z,32.70
2018-05-26T10:21:57.758Z,33.00
2018-05-26T10:24:25.225Z,33.00
2018-05-26T10:26:52.704Z,32.90
2018-05-26T10:29:20.201Z,32.50
2018-05-26T10:31:48.425Z,32.20
2018-05-26T10:34:15.982Z,32.10
2018-05-26T10:36:43.433Z,32.50
2018-05-26T10:39:10.880Z,33.50
2018-05-26T10:41:38.387Z,33.70
2018-05-26T10:44:05.856Z,33.10
2018-05-26T10:46:33.337Z,32.70
2018-05-26T10:49:00.789Z,32.20
2018-05-26T10:51:29.890Z,32.50
2018-05-26T10:53:57.334Z,33.00
2018-05-26T10:56:24.823Z,32.90
2018-05-26T10:58:52.391Z,32.80
2018-05-26T11:01:20.648Z,31.90
2018-05-26T11:03:48.090Z,31.80
2018-05-26T11:06:15.578Z,31.70
2018-05-26T11:08:43.060Z,32.20
2018-05-26T11:11:10.522Z,32.60
2018-05-26T11:13:37.987Z,32.40
2018-05-26T11:16:05.474Z,32.20
2018-05-26T11:18:32.961Z,31.90
2018-05-26T11:21:01.195Z,32.30
2018-05-26T11:23:28.654Z,32.30
2018-05-26T11:25:56.169Z,32.00
2018-05-26T11:28:24.357Z,32.20
2018-05-26T11:30:55.798Z,32.20
2018-05-26T11:33:23.968Z,30.90
2018-05-26T11:35:51.466Z,30.90
2018-05-26T11:38:18.925Z,30.90
2018-05-26T11:40:47.186Z,31.80
2018-05-26T11:43:14.657Z,31.80
2018-05-26T11:45:42.891Z,32.50
2018-05-26T11:48:10.358Z,32.40
2018-05-26T11:50:37.845Z,32.60
2018-05-26T11:53:06.274Z,32.00
2018-05-26T11:55:34.067Z,32.00
2018-05-26T11:58:01.516Z,32.50
2018-05-26T12:00:28.947Z,32.60
2018-05-26T12:02:56.426Z,32.30
2018-05-26T12:05:23.860Z,32.40
2018-05-26T12:07:51.324Z,31.70
2018-05-26T12:10:18.789Z,31.50
2018-05-26T12:12:46.276Z,31.50
2018-05-26T12:15:13.784Z,31.70
2018-05-26T12:17:41.257Z,31.90
2018-05-26T12:20:08.690Z,32.20
2018-05-26T12:22:36.274Z,32.00
2018-05-26T12:25:03.775Z,32.60
2018-05-26T12:27:31.248Z,32.50
2018-05-26T12:29:59.734Z,31.60
2018-05-26T12:32:27.291Z,30.80
2018-05-26T12:34:54.756Z,31.50
2018-05-26T12:37:22.219Z,31.90
2018-05-26T12:39:49.691Z,32.50
2018-05-26T12:42:17.180Z,32.10
2018-05-26T12:44:45.409Z,31.00
2018-05-26T12:47:12.879Z,31.00
2018-05-26T12:49:40.344Z,31.10
2018-05-26T12:52:07.838Z,31.30
2018-05-26T12:54:35.282Z,31.70
2018-05-26T12:57:02.775Z,31.50
2018-05-26T12:59:30.252Z,31.50
2018-05-26T13:01:57.750Z,31.70
2018-05-26T13:04:25.212Z,31.30
2018-05-26T13:06:52.661Z,31.50
2018-05-26T13:09:20.115Z,31.40
2018-05-26T13:11:47.587Z,31.60
2018-05-26T13:14:15.040Z,31.50
2018-05-26T13:16:42.511Z,32.00
2018-05-26T13:19:10.775Z,32.00
2018-05-26T13:21:38.254Z,32.00
2018-05-26T13:24:05.715Z,32.30
2018-05-26T13:26:33.159Z,31.90
2018-05-26T13:29:00.608Z,31.70
2018-05-26T13:31:28.083Z,31.00
2018-05-26T13:33:55.531Z,31.30
2018-05-26T13:36:23.022Z,31.40
2018-05-26T13:38:50.455Z,31.90
2018-05-26T13:41:17.926Z,31.80
2018-05-26T13:43:45.357Z,32.00
2018-05-26T13:46:12.805Z,32.20
2018-05-26T13:48:40.362Z,31.90
2018-05-26T13:51:07.869Z,32.00
2018-05-26T13:53:35.404Z,32.10
2018-05-26T13:56:02.749Z,32.10
2018-05-26T13:58:30.956Z,32.40
2018-05-26T14:00:59.071Z,32.30
2018-05-26T14:03:26.610Z,32.30
2018-05-26T14:05:54.079Z,31.90
2018-05-26T14:08:21.611Z,31.10
2018-05-26T14:10:49.837Z,30.60
2018-05-26T14:13:17.286Z,30.60
2018-05-26T14:15:44.747Z,30.80
2018-05-26T14:18:12.227Z,31.00
2018-05-26T14:20:40.444Z,31.20
2018-05-26T14:23:07.933Z,31.10
2018-05-26T14:25:35.385Z,31.50
2018-05-26T14:28:02.851Z,31.40
2018-05-26T14:30:30.315Z,30.60
2018-05-26T14:32:57.838Z,31.10
2018-05-26T14:35:25.296Z,31.30
2018-05-26T14:37:52.781Z,31.50
2018-05-26T14:40:20.253Z,31.20
2018-05-26T14:42:48.470Z,31.30
2018-05-26T14:45:15.923Z,31.30
2018-05-26T14:47:43.366Z,31.20
2018-05-26T14:50:10.967Z,31.30
2018-05-26T14:52:38.428Z,31.60
2018-05-26T14:55:05.888Z,31.30
2018-05-26T14:57:34.103Z,31.50
2018-05-26T15:02:35.104Z,31.50
2018-05-26T15:05:03.373Z,31.20
2018-05-26T15:07:30.834Z,31.10
2018-05-26T15:09:59.057Z,29.60
2018-05-26T15:12:26.493Z,29.60
2018-05-26T15:14:53.975Z,29.40
2018-05-26T15:17:21.447Z,28.90
2018-05-26T15:19:49.011Z,28.80
2018-05-26T15:22:16.454Z,28.50
2018-05-26T15:24:43.926Z,28.70
2018-05-26T15:27:11.505Z,29.00
2018-05-26T15:29:39.098Z,29.00
2018-05-26T15:32:06.567Z,29.10
2018-05-26T15:34:34.018Z,29.20
2018-05-26T15:37:01.662Z,29.20
2018-05-26T15:39:29.139Z,29.30
2018-05-26T15:41:56.636Z,29.30
2018-05-26T15:44:24.836Z,29.00
2018-05-26T15:46:52.309Z,29.00
2018-05-26T15:49:19.794Z,28.90
2018-05-26T15:51:48.031Z,29.10
2018-05-26T15:54:15.491Z,29.10
2018-05-26T15:56:43.066Z,29.10
2018-05-26T15:59:10.514Z,29.20
2018-05-26T16:01:38.431Z,29.10
2018-05-26T16:04:05.945Z,29.10
2018-05-26T16:06:33.425Z,28.70
2018-05-26T16:09:01.778Z,28.60
2018-05-26T16:11:30.746Z,28.60
2018-05-26T16:13:58.783Z,28.60
2018-05-26T16:16:26.343Z,28.70
2018-05-26T16:18:53.971Z,28.60
2018-05-26T16:21:22.222Z,28.30
2018-05-26T16:23:49.790Z,28.30
2018-05-26T16:26:18.065Z,28.10
2018-05-26T16:28:46.306Z,28.20
2018-05-26T16:31:14.774Z,28.10
2018-05-26T16:33:42.889Z,28.00
2018-05-26T16:36:11.463Z,28.20
2018-05-26T16:38:39.862Z,28.10
2018-05-26T16:41:08.059Z,28.00
2018-05-26T16:43:38.054Z,28.00
2018-05-26T16:46:05.624Z,27.90
2018-05-26T16:48:33.109Z,27.90
2018-05-26T16:51:00.591Z,27.80
2018-05-26T16:53:28.835Z,28.00
2018-05-26T16:55:57.708Z,28.00
2018-05-26T16:58:25.235Z,27.90
2018-05-26T17:00:52.697Z,28.00
2018-05-26T17:03:26.038Z,28.00
2018-05-26T17:05:55.832Z,27.90
2018-05-26T17:08:23.454Z,27.90
2018-05-26T17:10:50.927Z,27.90
2018-05-26T17:13:18.373Z,27.70
2018-05-26T17:15:45.852Z,27.70
2018-05-26T17:18:13.284Z,27.60
2018-05-26T17:23:13.846Z,27.60
2018-05-26T17:25:41.331Z,27.60
2018-05-26T17:28:09.544Z,27.60
2018-05-26T17:30:37.047Z,27.60
2018-05-26T17:33:04.507Z,27.60
2018-05-26T17:35:32.788Z,27.50
2018-05-26T17:38:00.272Z,27.50
2018-05-26T17:40:27.761Z,27.50
2018-05-26T17:42:55.187Z,27.30
2018-05-26T17:45:22.940Z,27.30
2018-05-26T17:47:50.394Z,27.20
2018-05-26T17:50:17.855Z,27.20
2018-05-26T17:52:46.128Z,27.20
2018-05-26T17:55:13.582Z,27.10
2018-05-26T17:57:41.079Z,27.00
2018-05-26T18:00:08.533Z,27.00
2018-05-26T18:02:36.041Z,27.00
2018-05-26T18:05:03.465Z,26.90
2018-05-26T18:07:30.934Z,26.90
2018-05-26T18:09:58.366Z,26.80
2018-05-26T18:12:26.826Z,26.60
2018-05-26T18:14:54.263Z,26.60
2018-05-26T18:17:21.724Z,26.60
2018-05-26T18:19:49.181Z,26.50
2018-05-26T18:22:16.715Z,26.40
2018-05-26T18:24:44.150Z,26.50
2018-05-26T18:27:11.618Z,26.50
2018-05-26T18:29:39.149Z,26.30
2018-05-26T18:32:06.629Z,26.30
2018-05-26T18:34:34.147Z,26.20
2018-05-26T18:37:02.397Z,26.00
2018-05-26T18:39:29.855Z,26.00
2018-05-26T18:41:57.311Z,26.00
2018-05-26T18:44:24.792Z,26.00
2018-05-26T18:46:53.604Z,25.90
2018-05-26T18:49:21.096Z,25.90
2018-05-26T18:51:48.599Z,25.90
2018-05-26T18:54:16.080Z,25.90
2018-05-26T18:56:43.511Z,25.70
2018-05-26T18:59:10.970Z,25.70
2018-05-26T19:01:38.461Z,25.70
2018-05-26T19:04:05.974Z,25.70
2018-05-26T19:06:33.455Z,25.60
2018-05-26T19:09:05.041Z,25.60
2018-05-26T19:11:32.575Z,25.50
2018-05-26T19:14:00.083Z,25.50
2018-05-26T19:16:27.520Z,25.40
2018-05-26T19:18:55.000Z,25.30
2018-05-26T19:21:22.447Z,25.30
2018-05-26T19:23:53.743Z,25.30
2018-05-26T19:26:21.212Z,25.20
2018-05-26T19:28:48.749Z,25.10
2018-05-26T19:31:16.199Z,25.00
2018-05-26T19:33:43.727Z,25.00
2018-05-26T19:36:11.202Z,25.00
2018-05-26T19:38:38.700Z,24.90
2018-05-26T19:41:06.147Z,24.80
2018-05-26T19:43:34.425Z,24.70
2018-05-26T19:46:01.895Z,24.70
2018-05-26T19:48:32.817Z,24.70
2018-05-26T19:51:01.052Z,24.70
2018-05-26T19:53:28.507Z,24.70
2018-05-26T19:55:56.048Z,24.60
2018-05-26T19:58:23.674Z,24.40
2018-05-26T20:00:51.170Z,24.30
2018-05-26T20:03:18.629Z,24.30
2018-05-26T20:05:46.103Z,24.20
2018-05-26T20:08:14.368Z,24.10
2018-05-26T20:10:41.856Z,24.00
2018-05-26T20:13:09.315Z,24.10
2018-05-26T20:15:36.863Z,24.00
2018-05-26T20:18:05.091Z,23.90
2018-05-26T20:20:32.620Z,23.80
2018-05-26T20:23:00.092Z,23.80
2018-05-26T20:25:27.545Z,23.70
2018-05-26T20:27:55.044Z,23.70
2018-05-26T20:30:23.322Z,23.70
2018-05-26T20:32:51.556Z,23.70
2018-05-26T20:35:19.036Z,23.70
2018-05-26T20:37:47.120Z,23.60
2018-05-26T20:40:14.725Z,23.60
2018-05-26T20:42:42.196Z,23.60
2018-05-26T20:45:09.655Z,23.60
2018-05-26T20:47:37.151Z,23.40
2018-05-26T20:50:04.638Z,23.30
2018-05-26T20:52:32.162Z,23.30
2018-05-26T20:55:04.194Z,23.30
2018-05-26T20:57:31.668Z,23.10
2018-05-26T20:59:59.222Z,23.00
2018-05-26T21:05:28.283Z,23.20
2018-05-26T21:10:53.192Z,23.20
2018-05-26T21:13:20.692Z,23.10
2018-05-26T21:15:48.927Z,23.00
2018-05-26T21:18:16.408Z,23.00
2018-05-26T21:20:43.862Z,22.90
2018-05-26T21:23:11.338Z,22.80
2018-05-26T21:25:38.801Z,22.80
2018-05-26T21:28:06.298Z,22.80
2018-05-26T21:30:33.768Z,22.80
2018-05-26T21:33:01.342Z,22.80
2018-05-26T21:35:28.800Z,22.80
2018-05-26T21:37:56.261Z,22.80
2018-05-26T21:40:23.730Z,22.80
2018-05-26T21:42:51.949Z,22.60
2018-05-26T21:45:19.456Z,22.60
2018-05-26T21:47:46.946Z,22.60
2018-05-26T21:50:14.395Z,22.60
2018-05-26T21:52:41.876Z,22.50
2018-05-26T21:55:09.370Z,22.40
2018-05-26T21:57:37.543Z,22.20
2018-05-26T22:00:05.037Z,22.20
2018-05-26T22:02:32.493Z,22.20
2018-05-26T22:04:59.959Z,22.30
2018-05-26T22:07:27.417Z,22.30
2018-05-26T22:09:54.919Z,22.30
2018-05-26T22:12:22.907Z,22.20
2018-05-26T22:14:50.404Z,22.20
2018-05-26T22:17:17.886Z,22.10
2018-05-26T22:19:45.836Z,22.10
2018-05-26T22:22:13.319Z,22.10
2018-05-26T22:24:40.775Z,22.10
2018-05-26T22:27:11.895Z,22.10
2018-05-26T22:29:39.390Z,22.10
2018-05-26T22:32:07.610Z,22.10
2018-05-26T22:34:35.072Z,22.10
2018-05-26T22:37:02.549Z,22.00
2018-05-26T22:39:30.035Z,21.90
2018-05-26T22:41:57.502Z,22.00
2018-05-26T22:44:25.011Z,21.80
2018-05-26T22:46:57.194Z,21.90
2018-05-26T22:49:24.778Z,21.80
2018-05-26T22:51:52.239Z,21.70
2018-05-26T22:54:19.991Z,21.60
2018-05-26T22:56:47.560Z,21.50
2018-05-26T22:59:15.773Z,21.60
2018-05-26T23:01:43.375Z,21.40
2018-05-26T23:04:10.860Z,21.50
2018-05-26T23:06:38.347Z,21.40
2018-05-26T23:09:06.540Z,21.50
2018-05-26T23:11:34.082Z,21.30
2018-05-26T23:14:01.647Z,21.30
2018-05-26T23:16:29.110Z,21.30
2018-05-26T23:18:56.627Z,21.40
2018-05-26T23:21:24.132Z,21.30
2018-05-26T23:23:51.775Z,21.30
2018-05-26T23:26:19.324Z,21.20
2018-05-26T23:28:46.816Z,21.20
2018-05-26T23:40:54.387Z,21.30
2018-05-26T23:43:21.964Z,21.10
2018-05-26T23:45:49.457Z,21.00
2018-05-26T23:48:16.931Z,21.00
2018-05-26T23:50:44.414Z,21.00
2018-05-26T23:53:12.650Z,21.00
2018-05-26T23:55:40.124Z,21.00
2018-05-26T23:58:07.582Z,21.00
